BFD65H CYQX-EDLP
Flight info
| Callsign | BFD65H |
|---|---|
| Flight time | N/A |
| Altitude | 41000 |
| Route | YQX DCT BUDAR DCT 51N050W 53N040W 54N030W 55N020W/N0495F410 DCT NIBOG DCT KELLY L10 PENIL UL28 MCT M16 DOLAS L603 LAMSO DCT EVELI DCT PAM L620 EXOBA EXOBA3H |
| Aircraft | F2TH/M-SBDE3FGHRWXY/S |
Departure
| Time | 2026-05-05 07:13 |
|---|---|
| Airport | Gander International Airport (CYQX) |
Arrival
| Time | N/A |
|---|---|
| Airport | Paderborn Lippstadt Airport (EDLP) |
| Time | Latitude | Longitude | Altitude | Speed | Heading |
|---|---|---|---|---|---|
| 2026-05-05 07:12 | 48.98176 | -54.34541 | 10522 ft | 400 kts | 55° |
| 2026-05-05 07:13 | 48.99841 | -54.31227 | 11230 ft | 399 kts | 49° |
| 2026-05-05 07:13 | 49.01610 | -54.27943 | 11863 ft | 402 kts | 50° |
| 2026-05-05 07:13 | 49.03237 | -54.24449 | 12494 ft | 405 kts | 56° |
| 2026-05-05 07:13 | 49.04738 | -54.20781 | 13128 ft | 407 kts | 57° |
| 2026-05-05 07:14 | 49.06289 | -54.17215 | 13719 ft | 409 kts | 54° |
| 2026-05-05 07:14 | 49.07950 | -54.13688 | 14289 ft | 410 kts | 53° |
| 2026-05-05 07:14 | 49.09596 | -54.10106 | 14831 ft | 412 kts | 55° |
| 2026-05-05 07:14 | 49.11190 | -54.06448 | 15395 ft | 414 kts | 56° |
| 2026-05-05 07:15 | 49.12803 | -54.02779 | 15981 ft | 416 kts | 55° |
| 2026-05-05 07:15 | 49.14455 | -53.99126 | 16564 ft | 419 kts | 55° |
| 2026-05-05 07:15 | 49.16115 | -53.95441 | 17142 ft | 421 kts | 56° |
| 2026-05-05 07:15 | 49.17740 | -53.91766 | 17750 ft | 424 kts | 56° |
| 2026-05-05 07:16 | 49.19397 | -53.88008 | 18303 ft | 426 kts | 56° |
| 2026-05-05 07:16 | 49.21069 | -53.84249 | 18859 ft | 427 kts | 56° |
| 2026-05-05 07:16 | 49.22745 | -53.80483 | 19416 ft | 429 kts | 56° |
| 2026-05-05 07:16 | 49.24425 | -53.76684 | 19986 ft | 431 kts | 56° |
| 2026-05-05 07:17 | 49.26086 | -53.72916 | 20544 ft | 433 kts | 56° |
| 2026-05-05 07:17 | 49.27777 | -53.69082 | 21087 ft | 435 kts | 56° |
| 2026-05-05 07:17 | 49.29479 | -53.65224 | 21585 ft | 439 kts | 56° |
| 2026-05-05 07:17 | 49.31195 | -53.61322 | 22081 ft | 442 kts | 57° |
| 2026-05-05 07:18 | 49.32920 | -53.57395 | 22633 ft | 444 kts | 57° |
| 2026-05-05 07:18 | 49.34649 | -53.53452 | 23169 ft | 446 kts | 57° |
| 2026-05-05 07:18 | 49.36364 | -53.49537 | 23580 ft | 449 kts | 57° |
| 2026-05-05 07:18 | 49.38113 | -53.45538 | 23970 ft | 452 kts | 57° |
| 2026-05-05 07:19 | 49.39871 | -53.41512 | 24363 ft | 456 kts | 57° |
| 2026-05-05 07:19 | 49.41651 | -53.37431 | 24760 ft | 459 kts | 57° |
| 2026-05-05 07:19 | 49.43432 | -53.33338 | 25157 ft | 463 kts | 57° |
| 2026-05-05 07:19 | 49.45213 | -53.29242 | 25453 ft | 469 kts | 57° |
| 2026-05-05 07:20 | 49.47030 | -53.25054 | 25866 ft | 472 kts | 57° |
| 2026-05-05 07:20 | 49.48858 | -53.20836 | 26277 ft | 475 kts | 57° |
| 2026-05-05 07:20 | 49.50701 | -53.16577 | 26678 ft | 478 kts | 57° |
| 2026-05-05 07:20 | 49.52550 | -53.12296 | 27092 ft | 482 kts | 57° |
| 2026-05-05 07:21 | 49.54409 | -53.07986 | 27486 ft | 485 kts | 57° |
| 2026-05-05 07:21 | 49.56283 | -53.03632 | 27886 ft | 489 kts | 57° |
| 2026-05-05 07:21 | 49.58169 | -52.99244 | 28285 ft | 492 kts | 57° |
| 2026-05-05 07:21 | 49.60047 | -52.94867 | 28722 ft | 495 kts | 57° |
| 2026-05-05 07:22 | 49.61951 | -52.90424 | 29115 ft | 498 kts | 57° |
| 2026-05-05 07:22 | 49.63863 | -52.85952 | 29498 ft | 501 kts | 57° |
| 2026-05-05 07:22 | 49.65794 | -52.81429 | 29845 ft | 505 kts | 57° |
| 2026-05-05 07:23 | 49.69697 | -52.72267 | 30218 ft | 516 kts | 58° |
| 2026-05-05 07:23 | 49.71674 | -52.67610 | 30528 ft | 519 kts | 58° |
| 2026-05-05 07:23 | 49.73640 | -52.62972 | 30972 ft | 518 kts | 57° |
| 2026-05-05 07:23 | 49.75617 | -52.58304 | 31426 ft | 518 kts | 57° |
| 2026-05-05 07:24 | 49.77589 | -52.53636 | 31837 ft | 518 kts | 57° |
| 2026-05-05 07:24 | 49.79564 | -52.48952 | 32262 ft | 518 kts | 57° |
| 2026-05-05 07:24 | 49.81538 | -52.44264 | 32705 ft | 519 kts | 57° |
| 2026-05-05 07:24 | 49.83487 | -52.39627 | 33134 ft | 519 kts | 57° |
| 2026-05-05 07:25 | 49.85461 | -52.34921 | 33576 ft | 519 kts | 57° |
| 2026-05-05 07:25 | 49.87424 | -52.30233 | 33964 ft | 519 kts | 57° |
| 2026-05-05 07:25 | 49.89382 | -52.25552 | 34451 ft | 515 kts | 58° |
| 2026-05-05 07:25 | 49.91310 | -52.20934 | 34898 ft | 513 kts | 58° |
| 2026-05-05 07:26 | 49.93248 | -52.16280 | 35292 ft | 512 kts | 58° |
| 2026-05-05 07:26 | 49.95184 | -52.11624 | 35678 ft | 512 kts | 58° |
| 2026-05-05 07:26 | 49.97112 | -52.06977 | 36065 ft | 512 kts | 58° |
| 2026-05-05 07:26 | 49.99044 | -52.02315 | 36484 ft | 511 kts | 58° |
| 2026-05-05 07:27 | 50.01101 | -51.97786 | 36844 ft | 511 kts | 52° |
| 2026-05-05 07:27 | 50.03332 | -51.93495 | 37240 ft | 510 kts | 51° |
| 2026-05-05 07:27 | 50.05571 | -51.89309 | 37667 ft | 509 kts | 51° |
| 2026-05-05 07:27 | 50.07794 | -51.85025 | 38100 ft | 508 kts | 52° |
| 2026-05-05 07:28 | 50.09986 | -51.80687 | 38450 ft | 508 kts | 52° |
| 2026-05-05 07:28 | 50.12196 | -51.76365 | 38721 ft | 509 kts | 52° |
| 2026-05-05 07:28 | 50.14423 | -51.72090 | 39044 ft | 509 kts | 52° |
| 2026-05-05 07:28 | 50.16643 | -51.67798 | 39373 ft | 508 kts | 52° |
| 2026-05-05 07:29 | 50.18843 | -51.63476 | 39699 ft | 507 kts | 52° |
| 2026-05-05 07:29 | 50.21033 | -51.59168 | 40014 ft | 507 kts | 52° |
| 2026-05-05 07:29 | 50.23209 | -51.54927 | 40438 ft | 504 kts | 52° |
| 2026-05-05 07:29 | 50.25412 | -51.50629 | 40646 ft | 507 kts | 53° |
| 2026-05-05 07:30 | 50.27623 | -51.46279 | 40646 ft | 514 kts | 53° |
| 2026-05-05 07:30 | 50.34342 | -51.33040 | 40652 ft | 522 kts | 53° |
| 2026-05-05 07:31 | 50.38105 | -51.25591 | 40649 ft | 524 kts | 53° |
| 2026-05-05 07:31 | 50.42615 | -51.16641 | 40656 ft | 525 kts | 53° |
| 2026-05-05 07:32 | 50.47144 | -51.07623 | 40658 ft | 527 kts | 53° |
| 2026-05-05 07:32 | 50.51680 | -50.98559 | 40656 ft | 526 kts | 53° |
| 2026-05-05 07:33 | 50.56185 | -50.89528 | 40652 ft | 528 kts | 53° |
| 2026-05-05 07:33 | 50.60715 | -50.80413 | 40654 ft | 528 kts | 53° |
| 2026-05-05 07:34 | 50.65242 | -50.71275 | 40658 ft | 529 kts | 53° |
| 2026-05-05 07:34 | 50.69741 | -50.62157 | 40653 ft | 528 kts | 53° |
| 2026-05-05 07:35 | 50.74262 | -50.52968 | 40654 ft | 529 kts | 53° |
| 2026-05-05 07:35 | 50.78745 | -50.43815 | 40655 ft | 528 kts | 54° |
| 2026-05-05 07:36 | 50.83252 | -50.34590 | 40659 ft | 529 kts | 53° |
| 2026-05-05 07:36 | 50.87747 | -50.25352 | 40654 ft | 528 kts | 54° |
| 2026-05-05 07:37 | 50.92228 | -50.16111 | 40671 ft | 530 kts | 54° |
| 2026-05-05 07:37 | 50.96718 | -50.06820 | 40670 ft | 531 kts | 54° |
| 2026-05-05 07:38 | 51.00814 | -49.97087 | 40657 ft | 528 kts | 66° |
| 2026-05-05 07:38 | 51.03479 | -49.86341 | 40693 ft | 525 kts | 73° |
| 2026-05-05 07:39 | 51.06137 | -49.75448 | 40689 ft | 530 kts | 69° |
| 2026-05-05 07:39 | 51.08922 | -49.64624 | 40707 ft | 529 kts | 72° |
| 2026-05-05 07:40 | 51.11541 | -49.53763 | 40702 ft | 529 kts | 70° |
| 2026-05-05 07:40 | 51.14296 | -49.42881 | 40685 ft | 528 kts | 72° |
| 2026-05-05 07:41 | 51.16936 | -49.31948 | 40695 ft | 529 kts | 71° |
| 2026-05-05 07:41 | 51.19645 | -49.21015 | 40692 ft | 529 kts | 72° |
| 2026-05-05 07:42 | 51.22273 | -49.10133 | 40712 ft | 528 kts | 72° |
| 2026-05-05 07:42 | 51.24938 | -48.99189 | 40714 ft | 529 kts | 72° |
| 2026-05-05 07:43 | 51.27584 | -48.88180 | 40719 ft | 529 kts | 72° |
| 2026-05-05 07:43 | 51.30213 | -48.77238 | 40718 ft | 529 kts | 72° |
| 2026-05-05 07:44 | 51.32840 | -48.66221 | 40732 ft | 531 kts | 72° |
| 2026-05-05 07:44 | 51.35450 | -48.55233 | 40732 ft | 530 kts | 72° |
| 2026-05-05 07:45 | 51.38060 | -48.44184 | 40732 ft | 530 kts | 72° |
| 2026-05-05 07:45 | 51.40666 | -48.33094 | 40731 ft | 530 kts | 72° |
| 2026-05-05 07:46 | 51.43242 | -48.22080 | 40750 ft | 530 kts | 72° |
| 2026-05-05 07:46 | 51.45820 | -48.10992 | 40744 ft | 529 kts | 72° |
| 2026-05-05 07:47 | 51.48369 | -47.99989 | 40752 ft | 529 kts | 72° |
| 2026-05-05 07:47 | 51.50918 | -47.88904 | 40753 ft | 529 kts | 72° |
| 2026-05-05 07:48 | 51.53444 | -47.77884 | 40769 ft | 528 kts | 73° |
| 2026-05-05 07:48 | 51.55974 | -47.66774 | 40769 ft | 529 kts | 73° |
| 2026-05-05 07:49 | 51.58499 | -47.55640 | 40777 ft | 529 kts | 73° |
| 2026-05-05 07:49 | 51.60992 | -47.44574 | 40782 ft | 529 kts | 73° |
| 2026-05-05 07:50 | 51.63495 | -47.33416 | 40786 ft | 528 kts | 73° |
| 2026-05-05 07:50 | 51.65984 | -47.22256 | 40788 ft | 529 kts | 73° |
| 2026-05-05 07:51 | 51.68450 | -47.11144 | 40787 ft | 527 kts | 73° |
| 2026-05-05 07:51 | 51.70904 | -47.00021 | 40794 ft | 527 kts | 74° |
| 2026-05-05 07:52 | 51.73354 | -46.88860 | 40815 ft | 526 kts | 73° |
| 2026-05-05 07:52 | 51.75778 | -46.77757 | 40819 ft | 528 kts | 73° |
| 2026-05-05 07:53 | 51.78205 | -46.66581 | 40814 ft | 526 kts | 74° |
| 2026-05-05 07:53 | 51.80616 | -46.55415 | 40810 ft | 525 kts | 74° |
| 2026-05-05 07:54 | 51.83004 | -46.44294 | 40824 ft | 528 kts | 74° |
| 2026-05-05 07:54 | 51.85411 | -46.33030 | 40832 ft | 531 kts | 74° |
| 2026-05-05 07:55 | 51.87815 | -46.21710 | 40830 ft | 531 kts | 74° |
| 2026-05-05 07:55 | 51.90197 | -46.10440 | 40838 ft | 528 kts | 74° |
| 2026-05-05 07:56 | 51.92559 | -45.99189 | 40852 ft | 529 kts | 74° |
| 2026-05-05 07:56 | 51.94910 | -45.87940 | 40857 ft | 529 kts | 75° |
| 2026-05-05 07:57 | 51.97261 | -45.76615 | 40857 ft | 529 kts | 74° |
| 2026-05-05 07:57 | 51.99598 | -45.65305 | 40856 ft | 527 kts | 75° |
| 2026-05-05 07:58 | 52.01904 | -45.54069 | 40882 ft | 528 kts | 75° |
| 2026-05-05 07:58 | 52.04226 | -45.42705 | 40881 ft | 529 kts | 75° |
| 2026-05-05 07:59 | 52.06525 | -45.31378 | 40892 ft | 529 kts | 75° |
| 2026-05-05 07:59 | 52.08822 | -45.20004 | 40882 ft | 527 kts | 75° |
| 2026-05-05 08:00 | 52.11074 | -45.08788 | 41134 ft | 516 kts | 75° |
| 2026-05-05 08:00 | 52.12158 | -45.03385 | 42380 ft | 490 kts | 75° |
| 2026-05-05 08:00 | 52.13203 | -44.98144 | 42877 ft | 486 kts | 76° |
| 2026-05-05 08:01 | 52.14239 | -44.92888 | 43145 ft | 486 kts | 76° |
| 2026-05-05 08:01 | 52.15265 | -44.87700 | 43435 ft | 486 kts | 75° |
| 2026-05-05 08:01 | 52.16307 | -44.82458 | 43775 ft | 485 kts | 75° |
| 2026-05-05 08:01 | 52.17343 | -44.77215 | 44056 ft | 485 kts | 75° |
| 2026-05-05 08:02 | 52.18368 | -44.71988 | 44286 ft | 484 kts | 75° |
| 2026-05-05 08:02 | 52.19397 | -44.66727 | 44452 ft | 484 kts | 75° |
| 2026-05-05 08:02 | 52.20423 | -44.61491 | 44584 ft | 485 kts | 75° |
| 2026-05-05 08:02 | 52.21446 | -44.56254 | 44725 ft | 484 kts | 76° |
| 2026-05-05 08:03 | 52.22453 | -44.51073 | 44850 ft | 485 kts | 75° |
| 2026-05-05 08:03 | 52.23476 | -44.45795 | 44927 ft | 486 kts | 75° |
| 2026-05-05 08:03 | 52.25521 | -44.35204 | 44923 ft | 491 kts | 75° |
| 2026-05-05 08:04 | 52.27574 | -44.24523 | 44936 ft | 497 kts | 75° |
| 2026-05-05 08:04 | 52.29634 | -44.13731 | 44946 ft | 502 kts | 75° |
| 2026-05-05 08:05 | 52.31716 | -44.02774 | 44949 ft | 506 kts | 76° |
| 2026-05-05 08:05 | 52.33795 | -43.91758 | 44953 ft | 511 kts | 76° |
| 2026-05-05 08:06 | 52.35894 | -43.80581 | 44951 ft | 515 kts | 76° |
| 2026-05-05 08:06 | 52.37993 | -43.69328 | 44948 ft | 519 kts | 76° |
| 2026-05-05 08:07 | 52.40090 | -43.58021 | 44963 ft | 521 kts | 76° |
| 2026-05-05 08:07 | 52.42187 | -43.46646 | 44967 ft | 521 kts | 76° |
| 2026-05-05 08:08 | 52.44261 | -43.35317 | 44968 ft | 521 kts | 76° |
| 2026-05-05 08:08 | 52.46325 | -43.23983 | 44956 ft | 521 kts | 76° |
| 2026-05-05 08:09 | 52.48385 | -43.12594 | 44963 ft | 520 kts | 76° |
| 2026-05-05 08:09 | 52.50439 | -43.01172 | 44968 ft | 521 kts | 76° |
| 2026-05-05 08:10 | 52.52470 | -42.89801 | 44973 ft | 521 kts | 76° |
| 2026-05-05 08:10 | 52.54507 | -42.78330 | 44972 ft | 521 kts | 76° |
| 2026-05-05 08:11 | 52.56513 | -42.66960 | 44973 ft | 518 kts | 76° |
| 2026-05-05 08:11 | 52.58511 | -42.55561 | 44972 ft | 519 kts | 76° |
| 2026-05-05 08:12 | 52.60500 | -42.44142 | 44977 ft | 519 kts | 76° |
| 2026-05-05 08:12 | 52.62477 | -42.32711 | 44981 ft | 519 kts | 76° |
| 2026-05-05 08:13 | 52.64435 | -42.21325 | 44975 ft | 517 kts | 76° |
| 2026-05-05 08:13 | 52.66382 | -42.09928 | 44981 ft | 516 kts | 76° |
| 2026-05-05 08:14 | 52.68314 | -41.98543 | 44982 ft | 516 kts | 76° |
| 2026-05-05 08:14 | 52.70227 | -41.87197 | 44991 ft | 518 kts | 76° |
| 2026-05-05 08:15 | 52.72146 | -41.75739 | 44996 ft | 517 kts | 76° |
| 2026-05-05 08:15 | 52.74055 | -41.64269 | 44991 ft | 516 kts | 76° |
| 2026-05-05 08:16 | 52.75937 | -41.52881 | 44990 ft | 516 kts | 77° |
| 2026-05-05 08:16 | 52.77819 | -41.41421 | 44996 ft | 516 kts | 77° |
| 2026-05-05 08:17 | 52.79680 | -41.30008 | 44991 ft | 516 kts | 77° |
| 2026-05-05 08:17 | 52.81537 | -41.18542 | 44998 ft | 517 kts | 77° |
| 2026-05-05 08:18 | 52.83396 | -41.06988 | 45009 ft | 521 kts | 77° |
| 2026-05-05 08:18 | 52.84945 | -40.97295 | 45018 ft | 524 kts | 77° |
| 2026-05-05 08:19 | 52.86807 | -40.85573 | 45016 ft | 528 kts | 77° |
| 2026-05-05 08:19 | 52.88659 | -40.73833 | 45013 ft | 531 kts | 77° |
| 2026-05-05 08:20 | 52.90518 | -40.61955 | 45011 ft | 532 kts | 77° |
| 2026-05-05 08:20 | 52.92367 | -40.50067 | 45011 ft | 532 kts | 78° |
| 2026-05-05 08:21 | 52.94196 | -40.38205 | 45018 ft | 532 kts | 77° |
| 2026-05-05 08:21 | 52.96023 | -40.26288 | 45025 ft | 532 kts | 78° |
| 2026-05-05 08:22 | 52.97827 | -40.14421 | 45027 ft | 532 kts | 78° |
| 2026-05-05 08:22 | 52.99627 | -40.02500 | 45024 ft | 532 kts | 78° |
| 2026-05-05 08:23 | 53.01371 | -39.90624 | 45017 ft | 532 kts | 79° |
| 2026-05-05 08:23 | 53.03063 | -39.78658 | 45026 ft | 532 kts | 78° |
| 2026-05-05 08:24 | 53.04787 | -39.66693 | 45035 ft | 531 kts | 78° |
| 2026-05-05 08:24 | 53.06460 | -39.54747 | 45037 ft | 530 kts | 79° |
| 2026-05-05 08:25 | 53.08141 | -39.42825 | 45049 ft | 529 kts | 79° |
| 2026-05-05 08:25 | 53.09796 | -39.30887 | 45044 ft | 529 kts | 79° |
| 2026-05-05 08:26 | 53.11434 | -39.19027 | 45059 ft | 528 kts | 79° |
| 2026-05-05 08:26 | 53.13068 | -39.07086 | 45060 ft | 527 kts | 79° |
| 2026-05-05 08:27 | 53.14675 | -38.95246 | 45070 ft | 527 kts | 79° |
| 2026-05-05 08:27 | 53.16282 | -38.83322 | 45073 ft | 526 kts | 79° |
| 2026-05-05 08:28 | 53.17873 | -38.71406 | 45078 ft | 526 kts | 79° |
| 2026-05-05 08:28 | 53.19442 | -38.59557 | 45080 ft | 525 kts | 79° |
| 2026-05-05 08:29 | 53.21006 | -38.47661 | 45094 ft | 524 kts | 80° |
| 2026-05-05 08:30 | 53.23326 | -38.29812 | 45103 ft | 524 kts | 80° |
| 2026-05-05 08:30 | 53.24847 | -38.17994 | 45107 ft | 523 kts | 79° |
| 2026-05-05 08:31 | 53.26368 | -38.06072 | 45121 ft | 523 kts | 79° |
| 2026-05-05 08:31 | 53.27863 | -37.94247 | 45125 ft | 522 kts | 80° |
| 2026-05-05 08:32 | 53.29354 | -37.82366 | 44324 ft | 521 kts | 79° |
| 2026-05-05 08:32 | 53.30091 | -37.76451 | 45161 ft | 521 kts | 79° |
| 2026-05-05 08:32 | 53.30824 | -37.70536 | 45148 ft | 521 kts | 80° |
| 2026-05-05 08:33 | 53.32291 | -37.58645 | 45148 ft | 521 kts | 79° |
| 2026-05-05 08:33 | 53.33735 | -37.46814 | 45158 ft | 521 kts | 79° |
| 2026-05-05 08:34 | 53.35180 | -37.34891 | 45159 ft | 521 kts | 80° |
| 2026-05-05 08:34 | 53.36608 | -37.22990 | 45178 ft | 521 kts | 80° |
| 2026-05-05 08:35 | 53.38016 | -37.11157 | 45180 ft | 521 kts | 80° |
| 2026-05-05 08:35 | 53.39420 | -36.99252 | 45193 ft | 521 kts | 81° |
| 2026-05-05 08:36 | 53.40813 | -36.87318 | 45183 ft | 521 kts | 80° |
| 2026-05-05 08:36 | 53.42196 | -36.75381 | 45198 ft | 521 kts | 79° |
| 2026-05-05 08:37 | 53.43560 | -36.63479 | 45214 ft | 521 kts | 80° |
| 2026-05-05 08:37 | 53.44919 | -36.51518 | 45213 ft | 522 kts | 80° |
| 2026-05-05 08:38 | 53.46270 | -36.39515 | 45230 ft | 522 kts | 79° |
| 2026-05-05 08:38 | 53.47599 | -36.27592 | 45226 ft | 522 kts | 80° |
| 2026-05-05 08:39 | 53.48925 | -36.15581 | 45247 ft | 522 kts | 80° |
| 2026-05-05 08:39 | 53.50239 | -36.03562 | 45245 ft | 522 kts | 80° |
| 2026-05-05 08:40 | 53.51533 | -35.91607 | 45245 ft | 523 kts | 80° |
| 2026-05-05 08:40 | 53.52825 | -35.79562 | 45248 ft | 523 kts | 80° |
| 2026-05-05 08:41 | 53.54105 | -35.67492 | 45253 ft | 523 kts | 79° |
| 2026-05-05 08:41 | 53.55365 | -35.55508 | 45249 ft | 523 kts | 80° |
| 2026-05-05 08:42 | 53.56620 | -35.43430 | 45264 ft | 523 kts | 80° |
| 2026-05-05 08:42 | 53.57863 | -35.31361 | 45276 ft | 523 kts | 80° |
| 2026-05-05 08:43 | 53.59094 | -35.19268 | 45272 ft | 523 kts | 80° |
| 2026-05-05 08:43 | 53.60305 | -35.07251 | 45283 ft | 523 kts | 80° |
| 2026-05-05 08:44 | 53.61515 | -34.95127 | 45280 ft | 523 kts | 80° |
| 2026-05-05 08:44 | 53.62702 | -34.83088 | 45283 ft | 523 kts | 80° |
| 2026-05-05 08:45 | 53.63881 | -34.71008 | 45284 ft | 523 kts | 80° |
| 2026-05-05 08:45 | 53.65053 | -34.58873 | 45299 ft | 523 kts | 80° |
| 2026-05-05 08:46 | 53.66202 | -34.46833 | 45296 ft | 523 kts | 80° |
| 2026-05-05 08:46 | 53.67348 | -34.34703 | 45302 ft | 522 kts | 80° |
| 2026-05-05 08:47 | 53.68481 | -34.22570 | 45299 ft | 522 kts | 81° |
| 2026-05-05 08:47 | 53.69593 | -34.10517 | 45306 ft | 523 kts | 80° |
| 2026-05-05 08:48 | 53.70699 | -33.98397 | 45305 ft | 523 kts | 80° |
| 2026-05-05 08:48 | 53.71795 | -33.86245 | 45307 ft | 523 kts | 80° |
| 2026-05-05 08:49 | 53.72871 | -33.74170 | 45314 ft | 522 kts | 81° |
| 2026-05-05 08:49 | 53.73942 | -33.62012 | 45320 ft | 522 kts | 81° |
| 2026-05-05 08:50 | 53.75000 | -33.49853 | 45318 ft | 522 kts | 81° |
| 2026-05-05 08:50 | 53.76047 | -33.37679 | 45318 ft | 522 kts | 81° |
| 2026-05-05 08:51 | 53.77074 | -33.25589 | 45324 ft | 522 kts | 81° |
| 2026-05-05 08:51 | 53.78097 | -33.13386 | 45324 ft | 522 kts | 81° |
| 2026-05-05 08:52 | 53.79106 | -33.01212 | 45330 ft | 522 kts | 81° |
| 2026-05-05 08:52 | 53.80094 | -32.89120 | 45325 ft | 522 kts | 81° |
| 2026-05-05 08:53 | 53.81080 | -32.76900 | 45323 ft | 522 kts | 81° |
| 2026-05-05 08:53 | 53.82052 | -32.64705 | 45330 ft | 522 kts | 81° |
| 2026-05-05 08:54 | 53.83005 | -32.52575 | 45341 ft | 522 kts | 81° |
| 2026-05-05 08:54 | 53.83953 | -32.40362 | 45339 ft | 522 kts | 81° |
| 2026-05-05 08:55 | 53.84888 | -32.28135 | 45335 ft | 523 kts | 81° |
| 2026-05-05 08:55 | 53.85805 | -32.15986 | 45331 ft | 523 kts | 81° |
| 2026-05-05 08:56 | 53.86715 | -32.03757 | 45330 ft | 523 kts | 81° |
| 2026-05-05 08:56 | 53.87615 | -31.91500 | 45348 ft | 523 kts | 81° |
| 2026-05-05 08:57 | 53.88493 | -31.79352 | 45341 ft | 522 kts | 81° |
| 2026-05-05 08:57 | 53.89367 | -31.67094 | 45344 ft | 522 kts | 82° |
| 2026-05-05 08:58 | 53.90223 | -31.54910 | 45338 ft | 522 kts | 82° |
| 2026-05-05 08:58 | 53.91073 | -31.42632 | 45340 ft | 522 kts | 82° |
| 2026-05-05 08:59 | 53.91908 | -31.30377 | 45343 ft | 522 kts | 82° |
| 2026-05-05 08:59 | 53.92728 | -31.18159 | 45352 ft | 522 kts | 82° |
| 2026-05-05 09:00 | 53.93537 | -31.05902 | 45349 ft | 522 kts | 82° |
| 2026-05-05 09:00 | 53.94331 | -30.93692 | 45350 ft | 522 kts | 82° |
| 2026-05-05 09:01 | 53.95111 | -30.81506 | 45355 ft | 522 kts | 82° |
| 2026-05-05 09:01 | 53.95882 | -30.69255 | 45352 ft | 522 kts | 82° |
| 2026-05-05 09:02 | 53.96643 | -30.56966 | 45360 ft | 522 kts | 82° |
| 2026-05-05 09:02 | 53.97390 | -30.44695 | 45356 ft | 522 kts | 82° |
| 2026-05-05 09:03 | 53.98119 | -30.32497 | 45355 ft | 522 kts | 83° |
| 2026-05-05 09:03 | 53.98843 | -30.20182 | 45359 ft | 522 kts | 82° |
| 2026-05-05 09:04 | 53.99552 | -30.07902 | 45362 ft | 522 kts | 82° |
| 2026-05-05 09:04 | 54.00551 | -29.95777 | 45360 ft | 519 kts | 75° |
| 2026-05-05 09:05 | 54.02346 | -29.83944 | 45370 ft | 518 kts | 73° |
| 2026-05-05 09:05 | 54.03999 | -29.71982 | 45374 ft | 518 kts | 75° |
| 2026-05-05 09:06 | 54.05702 | -29.60120 | 45363 ft | 518 kts | 73° |
| 2026-05-05 09:06 | 54.07105 | -29.50112 | 45364 ft | 518 kts | 75° |
| 2026-05-05 09:07 | 54.08754 | -29.38212 | 45363 ft | 518 kts | 74° |
| 2026-05-05 09:07 | 54.10416 | -29.26269 | 45364 ft | 518 kts | 75° |
| 2026-05-05 09:08 | 54.12041 | -29.14365 | 45363 ft | 518 kts | 74° |
| 2026-05-05 09:08 | 54.13675 | -29.02412 | 45363 ft | 518 kts | 74° |
| 2026-05-05 09:09 | 54.15285 | -28.90454 | 45362 ft | 518 kts | 74° |
| 2026-05-05 09:09 | 54.16873 | -28.78621 | 45369 ft | 517 kts | 75° |
| 2026-05-05 09:10 | 54.18465 | -28.66625 | 45351 ft | 518 kts | 75° |
| 2026-05-05 09:10 | 54.20042 | -28.54663 | 45350 ft | 518 kts | 75° |
| 2026-05-05 09:11 | 54.21611 | -28.42651 | 45342 ft | 518 kts | 75° |
| 2026-05-05 09:11 | 54.23170 | -28.30620 | 45345 ft | 518 kts | 75° |
| 2026-05-05 09:12 | 54.24714 | -28.18603 | 45343 ft | 520 kts | 75° |
| 2026-05-05 09:12 | 54.26265 | -28.06439 | 45358 ft | 528 kts | 75° |
| 2026-05-05 09:13 | 54.27828 | -27.94058 | 45357 ft | 536 kts | 75° |
| 2026-05-05 09:13 | 54.29388 | -27.81592 | 45355 ft | 540 kts | 75° |
| 2026-05-05 09:14 | 54.30949 | -27.69001 | 45354 ft | 541 kts | 75° |
| 2026-05-05 09:14 | 54.32505 | -27.56342 | 45348 ft | 542 kts | 76° |
| 2026-05-05 09:15 | 54.34037 | -27.43754 | 45347 ft | 542 kts | 76° |
| 2026-05-05 09:15 | 54.35567 | -27.31069 | 45351 ft | 542 kts | 76° |
| 2026-05-05 09:16 | 54.37074 | -27.18454 | 45348 ft | 542 kts | 76° |
| 2026-05-05 09:16 | 54.38578 | -27.05749 | 45340 ft | 543 kts | 76° |
| 2026-05-05 09:17 | 54.40073 | -26.92994 | 45337 ft | 543 kts | 76° |
| 2026-05-05 09:17 | 54.41544 | -26.80318 | 45331 ft | 543 kts | 76° |
| 2026-05-05 09:18 | 54.43010 | -26.67560 | 45330 ft | 543 kts | 76° |
| 2026-05-05 09:18 | 54.44455 | -26.54873 | 45331 ft | 545 kts | 76° |
| 2026-05-05 09:19 | 54.45898 | -26.42061 | 45339 ft | 544 kts | 76° |
| 2026-05-05 09:19 | 54.47315 | -26.29356 | 45328 ft | 544 kts | 77° |
| 2026-05-05 09:20 | 54.48727 | -26.16571 | 45333 ft | 544 kts | 77° |
| 2026-05-05 09:20 | 54.50108 | -26.03937 | 45353 ft | 545 kts | 77° |
| 2026-05-05 09:21 | 54.51499 | -25.91068 | 45314 ft | 545 kts | 77° |
| 2026-05-05 09:21 | 54.52875 | -25.78216 | 45309 ft | 545 kts | 77° |
| 2026-05-05 09:22 | 54.54225 | -25.65472 | 45319 ft | 545 kts | 77° |
| 2026-05-05 09:22 | 54.55571 | -25.52621 | 45321 ft | 545 kts | 77° |
| 2026-05-05 09:23 | 54.56909 | -25.39718 | 45316 ft | 545 kts | 77° |
| 2026-05-05 09:23 | 54.58224 | -25.26888 | 45319 ft | 545 kts | 77° |
| 2026-05-05 09:24 | 54.59535 | -25.13957 | 45321 ft | 545 kts | 77° |
| 2026-05-05 09:24 | 54.60829 | -25.01051 | 45315 ft | 545 kts | 77° |
| 2026-05-05 09:25 | 54.62102 | -24.88218 | 45314 ft | 546 kts | 78° |
| 2026-05-05 09:25 | 54.63368 | -24.75291 | 45312 ft | 546 kts | 78° |
| 2026-05-05 09:26 | 54.64623 | -24.62351 | 45311 ft | 546 kts | 78° |
| 2026-05-05 09:26 | 54.65854 | -24.49490 | 45312 ft | 546 kts | 78° |
| 2026-05-05 09:27 | 54.67083 | -24.36505 | 45306 ft | 546 kts | 78° |
| 2026-05-05 09:27 | 54.68296 | -24.23531 | 45309 ft | 546 kts | 78° |
| 2026-05-05 09:28 | 54.69488 | -24.10639 | 45309 ft | 546 kts | 78° |
| 2026-05-05 09:28 | 54.70675 | -23.97636 | 45299 ft | 546 kts | 78° |
| 2026-05-05 09:29 | 54.71847 | -23.84635 | 45297 ft | 546 kts | 79° |
| 2026-05-05 09:29 | 54.72999 | -23.71697 | 45295 ft | 546 kts | 79° |
| 2026-05-05 09:30 | 54.74143 | -23.58691 | 45293 ft | 546 kts | 79° |
| 2026-05-05 09:30 | 54.75266 | -23.45746 | 45294 ft | 546 kts | 79° |
| 2026-05-05 09:31 | 54.76384 | -23.32702 | 45302 ft | 546 kts | 79° |
| 2026-05-05 09:31 | 54.77482 | -23.19720 | 45292 ft | 546 kts | 79° |
| 2026-05-05 09:32 | 54.78572 | -23.06660 | 45292 ft | 546 kts | 79° |
| 2026-05-05 09:32 | 54.79639 | -22.93697 | 45289 ft | 546 kts | 79° |
| 2026-05-05 09:33 | 54.80700 | -22.80643 | 45289 ft | 546 kts | 79° |
| 2026-05-05 09:33 | 54.81746 | -22.67583 | 45285 ft | 546 kts | 80° |
| 2026-05-05 09:34 | 54.82772 | -22.54593 | 45291 ft | 546 kts | 80° |
| 2026-05-05 09:34 | 54.83791 | -22.41519 | 45292 ft | 546 kts | 80° |
| 2026-05-05 09:35 | 54.84793 | -22.28468 | 45293 ft | 546 kts | 80° |
| 2026-05-05 09:35 | 54.86275 | -22.08810 | 45285 ft | 546 kts | 80° |
| 2026-05-05 09:36 | 54.87243 | -21.95733 | 45281 ft | 546 kts | 81° |
| 2026-05-05 09:36 | 54.88193 | -21.82694 | 45285 ft | 546 kts | 81° |
| 2026-05-05 09:37 | 54.89134 | -21.69594 | 45301 ft | 546 kts | 81° |
| 2026-05-05 09:37 | 54.90061 | -21.56474 | 45274 ft | 546 kts | 81° |
| 2026-05-05 09:38 | 54.90968 | -21.43433 | 45281 ft | 546 kts | 81° |
| 2026-05-05 09:38 | 54.91868 | -21.30285 | 45268 ft | 546 kts | 81° |
| 2026-05-05 09:39 | 54.92749 | -21.17213 | 45264 ft | 546 kts | 81° |
| 2026-05-05 09:39 | 54.93621 | -21.04040 | 45279 ft | 546 kts | 81° |
| 2026-05-05 09:40 | 54.94474 | -20.90960 | 45278 ft | 546 kts | 81° |
| 2026-05-05 09:40 | 54.95316 | -20.77803 | 45278 ft | 546 kts | 82° |
| 2026-05-05 09:41 | 54.96140 | -20.64720 | 45274 ft | 546 kts | 82° |
| 2026-05-05 09:41 | 54.96954 | -20.51556 | 45265 ft | 547 kts | 82° |